createdAt,value
2022-09-15T00:02:54.261Z,53.94
2022-09-15T00:05:57.870Z,54.15
2022-09-15T00:09:01.147Z,57.03
2022-09-15T00:12:04.591Z,55.40
2022-09-15T00:15:09.099Z,55.48
2022-09-15T00:18:13.824Z,55.92
2022-09-15T00:21:19.776Z,54.44
2022-09-15T00:24:23.198Z,53.67
2022-09-15T00:27:26.619Z,53.50
2022-09-15T00:30:29.900Z,52.29
2022-09-15T00:33:34.759Z,53.24
2022-09-15T00:36:38.043Z,54.10
2022-09-15T00:39:41.265Z,53.67
2022-09-15T00:42:44.529Z,53.36
2022-09-15T00:45:48.602Z,53.62
2022-09-15T00:48:59.329Z,53.48
2022-09-15T00:52:07.382Z,53.96
2022-09-15T00:55:16.053Z,54.00
2022-09-15T00:58:26.083Z,54.60
2022-09-15T01:01:31.883Z,53.65
2022-09-15T01:04:36.674Z,53.84
2022-09-15T01:07:44.531Z,54.69
2022-09-15T01:10:47.811Z,54.74
2022-09-15T01:13:50.994Z,54.94
2022-09-15T01:17:00.148Z,53.99
2022-09-15T01:20:48.427Z,55.23
2022-09-15T01:24:26.901Z,53.76
2022-09-15T01:28:04.150Z,54.75
2022-09-15T01:31:15.149Z,53.75
2022-09-15T01:34:21.084Z,54.04
2022-09-15T01:37:31.944Z,55.40
2022-09-15T01:40:40.385Z,53.93
2022-09-15T01:43:50.465Z,53.66
2022-09-15T01:46:58.639Z,52.74
2022-09-15T01:50:07.386Z,52.89
2022-09-15T01:53:15.551Z,53.14
2022-09-15T01:56:18.908Z,52.15
2022-09-15T01:59:22.079Z,52.30
2022-09-15T02:02:31.698Z,52.11
2022-09-15T02:05:41.254Z,52.52
2022-09-15T02:08:47.885Z,54.71
2022-09-15T02:11:59.289Z,53.71
2022-09-15T02:15:08.160Z,53.75
2022-09-15T02:18:18.545Z,54.49
2022-09-15T02:21:29.906Z,55.80
2022-09-15T02:24:39.761Z,56.24
2022-09-15T02:27:47.392Z,55.72
2022-09-15T02:30:52.579Z,55.61
2022-09-15T02:34:01.435Z,56.03
2022-09-15T02:37:05.888Z,56.76
2022-09-15T02:40:10.308Z,56.26
2022-09-15T02:43:16.041Z,57.70
2022-09-15T02:46:21.262Z,55.84
2022-09-15T02:49:25.889Z,55.08
2022-09-15T02:52:29.073Z,55.09
2022-09-15T02:55:32.415Z,55.23
2022-09-15T02:58:36.060Z,55.89
2022-09-15T03:01:39.410Z,55.35
2022-09-15T03:04:43.991Z,55.31
2022-09-15T03:07:47.341Z,55.37
2022-09-15T03:10:50.582Z,55.00
2022-09-15T03:13:55.802Z,54.92
2022-09-15T03:16:59.009Z,55.56
2022-09-15T03:20:04.102Z,55.28
2022-09-15T03:23:07.336Z,55.37
2022-09-15T03:26:11.789Z,54.48
2022-09-15T03:29:15.027Z,54.29
2022-09-15T03:32:18.178Z,54.30
2022-09-15T03:35:22.812Z,53.58
2022-09-15T03:38:26.288Z,53.48
2022-09-15T03:41:29.515Z,54.42
2022-09-15T03:44:32.715Z,54.71
2022-09-15T03:47:35.972Z,54.31
2022-09-15T03:50:40.572Z,55.33
2022-09-15T03:53:43.993Z,55.45
2022-09-15T03:56:49.144Z,54.97
2022-09-15T03:59:52.343Z,55.28
2022-09-15T04:02:55.607Z,55.48
2022-09-15T04:06:00.102Z,56.64
2022-09-15T04:09:03.421Z,57.79
2022-09-15T04:12:07.140Z,57.39
2022-09-15T04:15:11.488Z,58.05
2022-09-15T04:18:14.684Z,58.44
2022-09-15T04:21:21.421Z,58.55
2022-09-15T04:24:24.703Z,59.10
2022-09-15T04:27:27.945Z,58.71
2022-09-15T04:30:31.109Z,58.53
2022-09-15T04:33:34.723Z,59.39
2022-09-15T04:36:39.360Z,58.02
2022-09-15T04:39:42.565Z,57.08
2022-09-15T04:42:45.785Z,56.68
2022-09-15T04:45:49.282Z,56.60
2022-09-15T04:48:54.049Z,55.95
2022-09-15T04:51:58.789Z,55.70
2022-09-15T04:55:05.012Z,55.47
2022-09-15T04:58:08.463Z,55.94
2022-09-15T05:01:13.573Z,55.53
2022-09-15T05:04:16.866Z,54.71
2022-09-15T05:07:21.772Z,54.82
2022-09-15T05:10:24.930Z,57.93
2022-09-15T05:13:28.307Z,56.94
2022-09-15T05:16:32.083Z,56.70
2022-09-15T05:19:35.361Z,56.37
2022-09-15T05:22:41.952Z,56.07
2022-09-15T05:25:45.315Z,55.58
2022-09-15T05:31:51.653Z,53.16
2022-09-15T05:34:55.088Z,52.40
2022-09-15T05:37:59.879Z,51.51
2022-09-15T05:41:04.067Z,51.23
2022-09-15T05:44:07.305Z,50.65
2022-09-15T05:47:10.575Z,49.97
2022-09-15T05:50:14.852Z,49.33
2022-09-15T05:53:19.661Z,48.37
2022-09-15T05:56:23.128Z,48.05
2022-09-15T05:59:26.331Z,49.31
2022-09-15T06:02:29.877Z,48.54
2022-09-15T06:05:33.146Z,48.30
2022-09-15T06:08:44.063Z,48.20
2022-09-15T06:11:47.774Z,47.22
2022-09-15T06:14:52.972Z,46.34
2022-09-15T06:17:56.276Z,46.46
2022-09-15T06:20:59.547Z,45.37
2022-09-15T06:24:07.442Z,44.58
2022-09-15T06:27:10.785Z,44.23
2022-09-15T06:30:14.774Z,44.51
2022-09-15T06:33:17.942Z,44.80
2022-09-15T06:36:22.666Z,43.68
2022-09-15T06:39:27.370Z,42.81
2022-09-15T06:42:30.666Z,42.77
2022-09-15T06:45:34.131Z,41.86
2022-09-15T06:48:38.301Z,41.57
2022-09-15T06:51:42.150Z,41.24
2022-09-15T06:54:46.778Z,41.26
2022-09-15T06:57:51.134Z,40.08
2022-09-15T07:00:54.355Z,40.80
2022-09-15T07:03:58.940Z,41.06
2022-09-15T07:07:02.120Z,41.37
2022-09-15T07:10:07.566Z,41.42
2022-09-15T07:13:10.701Z,41.30
2022-09-15T07:16:15.891Z,39.50
2022-09-15T07:19:19.173Z,40.71
2022-09-15T07:22:22.353Z,39.00
2022-09-15T07:25:27.038Z,39.23
2022-09-15T07:28:30.251Z,38.91
2022-09-15T07:31:35.190Z,39.72
2022-09-15T07:34:38.458Z,38.22
2022-09-15T07:37:41.650Z,38.40
2022-09-15T07:40:46.539Z,37.31
2022-09-15T07:43:50.795Z,37.94
2022-09-15T07:46:54.037Z,37.50
2022-09-15T07:49:57.239Z,37.45
2022-09-15T07:53:00.529Z,37.37
2022-09-15T07:56:05.439Z,37.14
2022-09-15T07:59:09.006Z,37.04
2022-09-15T08:02:18.356Z,36.31
2022-09-15T08:05:21.761Z,35.49
2022-09-15T08:08:24.962Z,35.07
2022-09-15T08:11:30.534Z,35.10
2022-09-15T08:14:34.046Z,35.54
2022-09-15T08:17:37.325Z,35.30
2022-09-15T08:20:40.986Z,34.46
2022-09-15T08:23:44.966Z,34.57
2022-09-15T08:26:49.614Z,34.81
2022-09-15T08:29:53.144Z,34.62
2022-09-15T08:32:56.505Z,34.35
2022-09-15T08:36:04.102Z,34.08
2022-09-15T08:39:07.642Z,33.62
2022-09-15T08:42:16.964Z,34.04
2022-09-15T08:45:24.337Z,33.87
2022-09-15T08:48:32.015Z,32.93
2022-09-15T08:51:42.024Z,32.74
2022-09-15T08:54:45.308Z,32.91
2022-09-15T08:57:49.960Z,33.11
2022-09-15T09:01:04.004Z,34.31
2022-09-15T09:04:29.065Z,33.79
2022-09-15T09:07:52.315Z,33.29
2022-09-15T09:11:00.876Z,32.54
2022-09-15T09:14:14.983Z,33.00
2022-09-15T09:17:34.660Z,33.22
2022-09-15T09:20:50.527Z,31.82
2022-09-15T09:24:01.145Z,32.57
2022-09-15T09:27:06.327Z,32.06
2022-09-15T09:30:17.816Z,31.97
2022-09-15T09:33:30.492Z,31.78
2022-09-15T09:36:34.937Z,31.89
2022-09-15T09:39:38.269Z,31.91
2022-09-15T09:42:42.021Z,31.22
2022-09-15T09:45:47.114Z,31.02
2022-09-15T09:48:56.403Z,31.44
2022-09-15T09:52:03.425Z,30.75
2022-09-15T09:55:24.338Z,30.84
2022-09-15T09:58:27.575Z,30.86
2022-09-15T10:01:32.401Z,30.35
2022-09-15T10:04:35.683Z,29.76
2022-09-15T10:07:44.838Z,30.09
2022-09-15T10:10:52.605Z,30.04
2022-09-15T10:13:56.894Z,29.62
2022-09-15T10:17:04.333Z,29.23
2022-09-15T10:20:25.926Z,29.28
2022-09-15T10:23:31.105Z,28.63
2022-09-15T10:26:36.219Z,28.72
2022-09-15T10:29:40.392Z,29.14
2022-09-15T10:32:45.455Z,28.67
2022-09-15T10:35:48.645Z,28.53
2022-09-15T10:39:03.299Z,28.11
2022-09-15T10:42:13.209Z,28.13
2022-09-15T10:45:28.608Z,27.89
2022-09-15T10:49:01.882Z,28.60
2022-09-15T10:52:17.615Z,28.91
2022-09-15T10:55:51.642Z,28.25
2022-09-15T10:59:03.767Z,27.59
2022-09-15T11:02:24.631Z,27.13
2022-09-15T11:05:41.116Z,27.88
2022-09-15T11:09:01.040Z,27.66
2022-09-15T11:12:16.790Z,27.50
2022-09-15T11:15:34.524Z,27.29
2022-09-15T11:18:54.086Z,27.70
2022-09-15T11:22:03.759Z,27.49
2022-09-15T11:25:16.287Z,26.65
2022-09-15T11:28:24.472Z,26.68
2022-09-15T11:31:31.491Z,26.59
2022-09-15T11:34:41.016Z,26.22
2022-09-15T11:37:51.167Z,26.42
2022-09-15T11:40:58.308Z,26.03
2022-09-15T11:44:20.012Z,26.03
2022-09-15T11:47:33.084Z,26.12
2022-09-15T11:50:40.645Z,26.21
2022-09-15T11:53:50.983Z,27.29
2022-09-15T11:56:56.728Z,27.02
2022-09-15T12:00:07.821Z,27.60
2022-09-15T12:03:21.432Z,28.05
2022-09-15T12:06:33.527Z,27.14
2022-09-15T12:09:38.050Z,27.69
2022-09-15T12:12:42.800Z,27.60
2022-09-15T12:15:47.755Z,27.02
2022-09-15T12:18:55.765Z,27.43
2022-09-15T12:22:03.471Z,27.06
2022-09-15T12:25:16.422Z,27.89
2022-09-15T12:28:39.833Z,28.13
2022-09-15T12:31:43.152Z,27.93
2022-09-15T12:35:02.071Z,28.38
2022-09-15T12:38:05.480Z,28.06
2022-09-15T12:41:11.344Z,27.82
2022-09-15T12:44:24.767Z,27.27
2022-09-15T12:47:35.429Z,28.02
2022-09-15T12:50:41.531Z,27.26
2022-09-15T12:53:52.245Z,26.58
2022-09-15T12:56:58.066Z,26.78
2022-09-15T13:00:37.972Z,27.18
2022-09-15T13:04:24.089Z,27.33
2022-09-15T13:07:58.901Z,27.76
2022-09-15T13:11:04.427Z,26.77
2022-09-15T13:14:25.802Z,26.58
2022-09-15T13:17:30.382Z,26.60
2022-09-15T13:20:37.759Z,26.46
2022-09-15T13:23:45.006Z,26.87
2022-09-15T13:26:53.181Z,27.58
2022-09-15T13:30:07.735Z,27.22
2022-09-15T13:41:24.669Z,27.58
2022-09-15T13:44:42.947Z,26.95
2022-09-15T13:48:01.529Z,27.73
2022-09-15T13:51:13.796Z,27.42
2022-09-15T13:54:19.281Z,26.62
2022-09-15T13:58:54.011Z,26.45
2022-09-15T14:00:55.518Z,26.10
2022-09-15T14:04:04.977Z,26.13
2022-09-15T14:07:23.141Z,26.37
2022-09-15T14:10:30.430Z,25.80
2022-09-15T14:13:35.353Z,25.82
2022-09-15T14:16:39.886Z,26.05
2022-09-15T14:19:45.103Z,25.79
2022-09-15T14:22:50.813Z,26.72
2022-09-15T14:25:54.715Z,26.14
2022-09-15T14:29:00.001Z,26.57
2022-09-15T14:32:04.032Z,26.17
2022-09-15T14:35:19.526Z,26.35
2022-09-15T14:38:25.152Z,26.11
2022-09-15T14:41:33.351Z,26.78
2022-09-15T14:48:08.672Z,27.80
2022-09-15T14:51:20.675Z,27.46
2022-09-15T14:54:29.254Z,27.11
2022-09-15T14:57:38.102Z,27.08
2022-09-15T15:00:51.422Z,27.42
2022-09-15T15:04:01.740Z,26.53
2022-09-15T15:07:15.207Z,27.06
2022-09-15T15:10:23.014Z,26.90
2022-09-15T15:13:26.453Z,27.11
2022-09-15T15:16:32.612Z,26.97
2022-09-15T15:19:38.359Z,27.95
2022-09-15T15:22:44.628Z,28.66
2022-09-15T15:25:48.218Z,28.63
2022-09-15T15:28:51.513Z,28.82
2022-09-15T15:31:54.833Z,28.18
2022-09-15T15:35:03.090Z,28.76
2022-09-15T15:38:15.602Z,29.47
2022-09-15T15:41:22.882Z,29.84
2022-09-15T15:44:28.609Z,29.87
2022-09-15T15:47:34.299Z,30.71
2022-09-15T15:50:37.547Z,30.53
2022-09-15T15:53:42.804Z,30.49
2022-09-15T15:56:47.593Z,30.10
2022-09-15T15:59:53.642Z,30.98
2022-09-15T16:02:57.391Z,31.60
2022-09-15T16:06:03.110Z,32.15
2022-09-15T16:09:07.949Z,32.84
2022-09-15T16:12:11.415Z,33.12
2022-09-15T16:15:17.852Z,33.09
2022-09-15T16:18:21.563Z,33.39
2022-09-15T16:21:37.000Z,34.14
2022-09-15T16:24:41.672Z,34.40
2022-09-15T16:27:44.932Z,34.43
2022-09-15T16:30:48.443Z,34.62
2022-09-15T16:33:51.676Z,34.90
2022-09-15T16:36:54.832Z,34.75
2022-09-15T16:39:59.527Z,35.29
2022-09-15T16:43:02.832Z,35.57
2022-09-15T16:46:07.233Z,36.47
2022-09-15T16:49:10.465Z,37.88
2022-09-15T16:52:14.085Z,38.36
2022-09-15T16:55:25.008Z,37.95
2022-09-15T16:58:28.268Z,38.05
2022-09-15T17:01:31.538Z,38.23
2022-09-15T17:04:34.840Z,38.25
2022-09-15T17:07:38.023Z,38.20
2022-09-15T17:10:42.979Z,38.08
2022-09-15T17:13:47.314Z,38.21
2022-09-15T17:16:52.905Z,38.58
2022-09-15T17:19:56.125Z,38.41
2022-09-15T17:22:59.339Z,39.03
2022-09-15T17:26:06.158Z,38.34
2022-09-15T17:29:09.623Z,38.40
2022-09-15T17:32:12.909Z,38.46
2022-09-15T17:35:23.248Z,39.18
2022-09-15T17:38:27.281Z,38.88
2022-09-15T17:41:32.683Z,38.77
2022-09-15T17:44:37.740Z,38.87
2022-09-15T17:47:41.048Z,38.21
2022-09-15T17:50:45.460Z,38.57
2022-09-15T17:53:48.751Z,38.15
2022-09-15T17:56:53.332Z,38.29
2022-09-15T17:59:56.510Z,37.87
2022-09-15T18:03:01.868Z,38.12
2022-09-15T18:06:08.002Z,37.77
2022-09-15T18:09:11.709Z,38.36
2022-09-15T18:12:16.375Z,38.08
2022-09-15T18:15:22.217Z,38.02
2022-09-15T18:18:27.961Z,38.00
2022-09-15T18:21:31.359Z,38.23
2022-09-15T18:24:34.574Z,38.47
2022-09-15T18:27:39.143Z,38.51
2022-09-15T18:30:44.817Z,38.79
2022-09-15T18:33:48.119Z,38.77
2022-09-15T18:36:51.363Z,38.88
2022-09-15T18:39:54.604Z,39.68
2022-09-15T18:42:59.303Z,39.58
2022-09-15T18:46:02.717Z,40.35
2022-09-15T18:49:08.290Z,40.60
2022-09-15T18:52:11.469Z,40.98
2022-09-15T18:55:17.570Z,41.32
2022-09-15T18:58:22.787Z,41.57
2022-09-15T19:01:26.164Z,41.37
2022-09-15T19:04:32.707Z,41.65
2022-09-15T19:07:37.439Z,41.76
2022-09-15T19:10:43.942Z,41.80
2022-09-15T19:13:48.496Z,42.31
2022-09-15T19:16:58.180Z,42.66
2022-09-15T19:20:02.201Z,42.35
2022-09-15T19:23:05.461Z,42.74
2022-09-15T19:26:13.148Z,43.11
2022-09-15T19:29:18.032Z,42.50
2022-09-15T19:32:22.253Z,42.55
2022-09-15T19:35:25.713Z,43.38
2022-09-15T19:38:29.435Z,43.71
2022-09-15T19:41:33.193Z,43.65
2022-09-15T19:44:38.167Z,44.04
2022-09-15T19:47:42.163Z,44.23
2022-09-15T19:50:45.397Z,45.67
2022-09-15T19:53:48.986Z,44.37
2022-09-15T19:56:52.343Z,45.79
2022-09-15T19:59:56.922Z,44.64
2022-09-15T20:03:00.248Z,45.61
2022-09-15T20:06:07.740Z,45.61
2022-09-15T20:09:11.577Z,45.63
2022-09-15T20:12:14.811Z,45.88
2022-09-15T20:15:19.543Z,46.33
2022-09-15T20:18:23.160Z,46.12
2022-09-15T20:21:48.594Z,46.52
2022-09-15T20:24:52.057Z,46.64
2022-09-15T20:27:55.276Z,46.94
2022-09-15T20:31:05.891Z,47.32
2022-09-15T20:34:09.625Z,47.02
2022-09-15T20:37:12.949Z,48.24
2022-09-15T20:40:16.961Z,47.95
2022-09-15T20:43:20.231Z,47.53
2022-09-15T20:46:25.603Z,47.91
2022-09-15T20:49:28.966Z,47.82
2022-09-15T20:52:37.429Z,47.68
2022-09-15T20:55:41.588Z,47.18
2022-09-15T20:58:45.005Z,47.81
2022-09-15T21:01:49.645Z,48.25
2022-09-15T21:04:52.879Z,47.47
2022-09-15T21:07:56.028Z,47.23
2022-09-15T21:10:59.558Z,48.30
2022-09-15T21:14:03.374Z,47.44
2022-09-15T21:17:08.235Z,47.69
2022-09-15T21:20:11.766Z,48.00
2022-09-15T21:23:16.270Z,49.40
2022-09-15T21:26:21.218Z,50.07
2022-09-15T21:29:24.510Z,48.97
2022-09-15T21:32:29.900Z,49.33
2022-09-15T21:35:33.614Z,49.42
2022-09-15T21:38:38.296Z,50.04
2022-09-15T21:41:41.648Z,49.99
2022-09-15T21:44:45.289Z,50.01
2022-09-15T21:47:49.780Z,49.68
2022-09-15T21:50:53.423Z,49.88
2022-09-15T21:53:57.873Z,49.23
2022-09-15T21:57:01.242Z,49.12
2022-09-15T22:00:05.823Z,49.92
2022-09-15T22:03:10.912Z,50.08
2022-09-15T22:06:14.502Z,49.88
2022-09-15T22:09:21.473Z,50.20
2022-09-15T22:12:24.957Z,50.48
2022-09-15T22:15:28.153Z,50.36
2022-09-15T22:18:32.821Z,50.54
2022-09-15T22:21:37.167Z,50.93
2022-09-15T22:24:40.554Z,50.86
2022-09-15T22:27:44.160Z,53.64
2022-09-15T22:30:47.421Z,52.73
2022-09-15T22:33:52.235Z,53.75
2022-09-15T22:36:55.517Z,53.33
2022-09-15T22:39:59.528Z,54.07
2022-09-15T22:43:02.872Z,55.50
2022-09-15T22:46:06.763Z,55.18
2022-09-15T22:49:11.549Z,53.61
2022-09-15T22:52:14.741Z,52.38
2022-09-15T22:55:17.956Z,53.38
2022-09-15T22:58:21.420Z,53.27
2022-09-15T23:01:26.628Z,52.45
2022-09-15T23:04:31.280Z,52.07
2022-09-15T23:07:34.649Z,53.28
2022-09-15T23:10:37.914Z,52.80
2022-09-15T23:13:42.124Z,52.76
2022-09-15T23:16:45.723Z,52.80
2022-09-15T23:19:50.627Z,52.34
2022-09-15T23:22:53.872Z,53.35
2022-09-15T23:25:57.808Z,52.42
2022-09-15T23:29:01.017Z,52.20
2022-09-15T23:32:04.833Z,51.43
2022-09-15T23:35:10.586Z,52.23
2022-09-15T23:38:13.934Z,51.94
2022-09-15T23:41:18.145Z,51.91
2022-09-15T23:44:21.410Z,52.52
2022-09-15T23:47:24.707Z,52.06
2022-09-15T23:50:29.395Z,53.81
2022-09-15T23:53:32.838Z,53.02
2022-09-15T23:56:36.050Z,52.77
2022-09-15T23:59:39.248Z,53.66
